createdAt,value
2017-05-18T00:00:02.001Z,61.40
2017-05-18T00:02:33.083Z,61.50
2017-05-18T00:05:03.868Z,65.10
2017-05-18T00:07:34.724Z,66.70
2017-05-18T00:10:05.547Z,77.60
2017-05-18T00:12:36.175Z,75.60
2017-05-18T00:15:06.906Z,74.00
2017-05-18T00:17:37.807Z,80.70
2017-05-18T00:20:08.598Z,83.70
2017-05-18T00:22:40.697Z,88.20
2017-05-18T00:25:11.289Z,88.00
2017-05-18T00:27:41.951Z,90.50
2017-05-18T00:30:13.927Z,93.50
2017-05-18T00:32:44.949Z,92.80
2017-05-18T00:35:15.735Z,95.20
2017-05-18T00:37:46.620Z,97.00
2017-05-18T00:40:18.055Z,98.40
2017-05-18T00:42:49.660Z,96.70
2017-05-18T00:45:21.016Z,95.90
2017-05-18T00:47:52.621Z,99.90
2017-05-18T00:50:26.895Z,99.90
2017-05-18T00:52:57.705Z,97.10
2017-05-18T00:55:28.604Z,99.90
2017-05-18T00:57:59.428Z,99.30
2017-05-18T01:00:30.177Z,96.10
2017-05-18T01:03:01.104Z,94.60
2017-05-18T01:05:32.161Z,96.90
2017-05-18T01:08:03.121Z,96.70
2017-05-18T01:10:33.776Z,93.90
2017-05-18T01:13:04.491Z,95.60
2017-05-18T01:15:35.082Z,96.60
2017-05-18T01:18:05.752Z,95.50
2017-05-18T01:20:36.773Z,96.20
2017-05-18T01:23:07.555Z,96.80
2017-05-18T01:25:38.321Z,97.20
2017-05-18T01:28:08.998Z,97.30
2017-05-18T01:30:39.684Z,94.70
2017-05-18T01:33:10.652Z,93.60
2017-05-18T01:35:41.581Z,95.30
2017-05-18T01:38:12.411Z,94.90
2017-05-18T01:40:43.176Z,95.70
2017-05-18T01:43:13.937Z,99.10
2017-05-18T01:45:45.668Z,97.40
2017-05-18T01:48:16.604Z,96.20
2017-05-18T01:50:48.290Z,93.70
2017-05-18T01:53:19.784Z,96.70
2017-05-18T01:55:50.676Z,94.40
2017-05-18T01:58:21.425Z,94.50
2017-05-18T02:00:52.905Z,93.20
2017-05-18T02:03:23.840Z,95.40
2017-05-18T02:05:54.581Z,95.00
2017-05-18T02:08:25.411Z,94.50
2017-05-18T02:10:55.960Z,96.20
2017-05-18T02:13:26.668Z,98.00
2017-05-18T02:15:57.518Z,95.50
2017-05-18T02:18:28.488Z,99.90
2017-05-18T02:20:59.204Z,97.50
2017-05-18T02:23:29.950Z,94.10
2017-05-18T02:26:00.565Z,97.10
2017-05-18T02:28:31.279Z,95.40
2017-05-18T02:31:02.845Z,95.90
2017-05-18T02:33:33.674Z,95.80
2017-05-18T02:36:04.298Z,96.90
2017-05-18T02:38:35.661Z,98.40
2017-05-18T02:41:06.451Z,97.90
2017-05-18T02:43:37.934Z,98.20
2017-05-18T02:46:08.587Z,97.00
2017-05-18T02:48:39.508Z,95.70
2017-05-18T02:51:11.271Z,96.20
2017-05-18T02:53:42.305Z,95.60
2017-05-18T02:56:12.929Z,95.10
2017-05-18T02:58:43.791Z,95.80
2017-05-18T03:01:14.530Z,93.60
2017-05-18T03:03:45.406Z,95.10
2017-05-18T03:06:16.298Z,98.90
2017-05-18T03:08:47.260Z,99.00
2017-05-18T03:11:17.837Z,99.90
2017-05-18T03:13:48.195Z,99.90
2017-05-18T03:16:19.244Z,99.90
2017-05-18T03:18:49.755Z,99.90
2017-05-18T03:21:20.642Z,99.90
2017-05-18T03:23:51.387Z,99.90
2017-05-18T03:26:22.127Z,99.90
2017-05-18T03:28:53.182Z,99.90
2017-05-18T03:31:24.407Z,99.90
2017-05-18T03:33:55.233Z,97.80
2017-05-18T03:36:26.037Z,99.90
2017-05-18T03:38:57.181Z,99.90
2017-05-18T03:41:28.162Z,99.90
2017-05-18T03:43:59.220Z,99.90
2017-05-18T03:46:29.895Z,99.90
2017-05-18T03:49:00.647Z,99.90
2017-05-18T03:51:32.799Z,99.90
2017-05-18T03:54:03.439Z,99.90
2017-05-18T03:56:34.230Z,99.90
2017-05-18T03:59:05.383Z,99.90
2017-05-18T04:01:36.609Z,99.90
2017-05-18T04:04:07.487Z,99.90
2017-05-18T04:06:38.232Z,99.90
2017-05-18T04:09:08.839Z,99.90
2017-05-18T04:11:39.699Z,99.90
2017-05-18T04:14:10.638Z,99.90
2017-05-18T04:16:41.383Z,99.90
2017-05-18T04:19:12.215Z,99.90
2017-05-18T04:21:42.860Z,99.90
2017-05-18T04:24:13.448Z,99.90
2017-05-18T04:26:44.387Z,99.90
2017-05-18T04:29:15.032Z,99.90
2017-05-18T04:31:45.795Z,99.90
2017-05-18T04:34:16.712Z,99.90
2017-05-18T04:36:47.297Z,99.90
2017-05-18T04:39:18.164Z,99.90
2017-05-18T04:41:48.971Z,99.90
2017-05-18T04:44:20.026Z,99.90
2017-05-18T04:46:51.700Z,99.90
2017-05-18T04:49:22.629Z,99.90
2017-05-18T04:51:54.700Z,99.90
2017-05-18T04:54:25.402Z,99.90
2017-05-18T04:56:56.346Z,99.90
2017-05-18T04:59:28.035Z,99.90
2017-05-18T05:01:59.069Z,99.90
2017-05-18T05:04:29.894Z,99.90
2017-05-18T05:07:00.595Z,99.90
2017-05-18T05:09:31.317Z,99.90
2017-05-18T05:12:02.171Z,99.90
2017-05-18T05:14:33.275Z,99.90
2017-05-18T05:17:04.261Z,99.90
2017-05-18T05:19:35.773Z,99.90
2017-05-18T05:22:06.283Z,99.90
2017-05-18T05:24:36.997Z,99.90
2017-05-18T05:27:08.359Z,99.90
2017-05-18T05:29:39.046Z,99.90
2017-05-18T05:32:09.978Z,99.90
2017-05-18T05:34:41.015Z,99.90
2017-05-18T05:37:12.420Z,99.90
2017-05-18T05:39:43.360Z,99.90
2017-05-18T05:42:14.500Z,99.90
2017-05-18T05:44:45.632Z,99.90
2017-05-18T05:47:16.072Z,99.90
2017-05-18T05:49:47.021Z,99.90
2017-05-18T05:52:24.326Z,99.90
2017-05-18T05:54:55.247Z,99.90
2017-05-18T05:57:26.284Z,99.90
2017-05-18T05:59:57.217Z,99.90
2017-05-18T06:02:28.352Z,99.90
2017-05-18T06:04:59.428Z,99.90
2017-05-18T06:07:30.557Z,99.90
2017-05-18T06:10:01.287Z,99.90
2017-05-18T06:12:31.872Z,99.90
2017-05-18T06:15:02.904Z,99.90
2017-05-18T06:17:33.647Z,99.90
2017-05-18T06:20:04.469Z,99.90
2017-05-18T06:22:35.221Z,99.90
2017-05-18T06:25:05.950Z,99.90
2017-05-18T06:27:36.352Z,99.90
2017-05-18T06:30:07.020Z,99.90
2017-05-18T06:32:37.979Z,99.90
2017-05-18T06:35:08.389Z,99.90
2017-05-18T06:37:40.289Z,99.90
2017-05-18T06:40:11.249Z,99.90
2017-05-18T06:42:42.223Z,99.90
2017-05-18T06:45:13.527Z,99.90
2017-05-18T06:47:43.962Z,99.90
2017-05-18T06:50:14.535Z,99.90
2017-05-18T06:52:46.772Z,99.90
2017-05-18T06:55:18.551Z,99.90
2017-05-18T06:57:49.448Z,99.90
2017-05-18T07:00:20.372Z,99.90
2017-05-18T07:02:51.324Z,99.90
2017-05-18T07:05:22.331Z,99.90
2017-05-18T07:07:52.859Z,99.90
2017-05-18T07:10:23.344Z,99.90
2017-05-18T07:12:53.939Z,99.90
2017-05-18T07:15:24.631Z,99.90
2017-05-18T07:17:55.388Z,99.90
2017-05-18T07:20:26.027Z,99.90
2017-05-18T07:22:56.867Z,99.90
2017-05-18T07:25:28.308Z,99.90
2017-05-18T07:27:59.881Z,99.90
2017-05-18T07:30:30.496Z,99.90
2017-05-18T07:33:00.996Z,99.90
2017-05-18T07:35:31.644Z,99.90
2017-05-18T07:38:02.317Z,99.90
2017-05-18T07:40:33.353Z,99.90
2017-05-18T07:43:04.218Z,99.90
2017-05-18T07:45:34.878Z,99.90
2017-05-18T07:48:05.385Z,99.90
2017-05-18T07:50:36.347Z,99.90
2017-05-18T07:53:08.371Z,99.90
2017-05-18T07:55:39.305Z,99.90
2017-05-18T07:58:09.776Z,99.90
2017-05-18T08:00:40.611Z,99.90
2017-05-18T08:03:11.379Z,99.90
2017-05-18T08:05:42.196Z,99.90
2017-05-18T08:08:12.836Z,99.90
2017-05-18T08:10:43.669Z,99.90
2017-05-18T08:13:14.217Z,99.90
2017-05-18T08:15:45.562Z,99.90
2017-05-18T08:18:16.369Z,99.90
2017-05-18T08:20:47.278Z,99.90
2017-05-18T08:23:18.047Z,99.90
2017-05-18T08:25:48.666Z,99.90
2017-05-18T08:28:19.171Z,99.90
2017-05-18T08:30:49.804Z,99.90
2017-05-18T08:33:20.627Z,99.90
2017-05-18T08:35:52.212Z,99.90
2017-05-18T08:38:23.175Z,99.90
2017-05-18T08:40:53.819Z,99.90
2017-05-18T08:43:24.191Z,99.90
2017-05-18T08:45:55.174Z,99.90
2017-05-18T08:48:25.762Z,99.90
2017-05-18T08:50:56.360Z,99.90
2017-05-18T08:53:28.057Z,99.90
2017-05-18T08:55:58.571Z,99.90
2017-05-18T08:58:29.523Z,99.90
2017-05-18T09:01:00.337Z,99.90
2017-05-18T09:03:30.769Z,99.90
2017-05-18T09:06:01.469Z,99.90
2017-05-18T09:08:32.874Z,99.90
2017-05-18T09:11:03.519Z,99.90
2017-05-18T09:13:34.360Z,99.90
2017-05-18T09:16:04.988Z,99.90
2017-05-18T09:18:35.844Z,99.90
2017-05-18T09:21:06.599Z,99.90
2017-05-18T09:23:37.257Z,99.90
2017-05-18T09:26:07.867Z,99.90
2017-05-18T09:28:39.210Z,99.90
2017-05-18T09:31:09.981Z,99.90
2017-05-18T09:33:40.783Z,99.90
2017-05-18T09:36:11.851Z,99.90
2017-05-18T09:38:42.210Z,99.90
2017-05-18T09:41:15.887Z,99.90
2017-05-18T09:43:46.691Z,99.90
2017-05-18T09:46:17.023Z,99.90
2017-05-18T09:48:47.742Z,99.90
2017-05-18T09:51:18.608Z,99.90
2017-05-18T09:53:50.607Z,99.90
2017-05-18T09:56:21.573Z,99.90
2017-05-18T09:58:53.082Z,99.90
2017-05-18T10:01:23.780Z,99.90
2017-05-18T10:03:54.783Z,99.90
2017-05-18T10:06:25.307Z,99.90
2017-05-18T10:08:56.351Z,99.90
2017-05-18T10:11:27.087Z,99.90
2017-05-18T10:13:57.999Z,99.90
2017-05-18T10:16:29.428Z,99.90
2017-05-18T10:19:00.060Z,99.90
2017-05-18T10:21:30.705Z,99.90
2017-05-18T10:24:01.355Z,99.90
2017-05-18T10:26:32.257Z,99.90
2017-05-18T10:29:02.800Z,99.90
2017-05-18T10:31:33.611Z,99.90
2017-05-18T10:34:03.912Z,99.90
2017-05-18T10:36:34.667Z,99.90
2017-05-18T10:39:05.810Z,99.90
2017-05-18T10:41:37.260Z,99.90
2017-05-18T10:44:07.662Z,99.90
2017-05-18T10:46:38.391Z,99.90
2017-05-18T10:49:08.827Z,99.90
2017-05-18T10:51:40.484Z,99.90
2017-05-18T10:54:12.471Z,99.90
2017-05-18T10:56:43.455Z,99.90
2017-05-18T10:59:14.172Z,99.90
2017-05-18T11:01:44.784Z,99.90
2017-05-18T11:04:15.529Z,99.90
2017-05-18T11:06:46.631Z,99.90
2017-05-18T11:09:17.571Z,99.90
2017-05-18T11:11:48.359Z,99.90
2017-05-18T11:14:19.218Z,99.90
2017-05-18T11:16:50.181Z,99.90
2017-05-18T11:19:21.009Z,99.90
2017-05-18T11:21:51.236Z,99.90
2017-05-18T11:24:22.056Z,99.90
2017-05-18T11:26:52.698Z,99.90
2017-05-18T11:29:23.376Z,99.90
2017-05-18T11:31:54.061Z,99.90
2017-05-18T11:34:24.645Z,99.90
2017-05-18T11:36:55.512Z,99.90
2017-05-18T11:39:26.534Z,99.90
2017-05-18T11:41:57.211Z,99.90
2017-05-18T11:44:27.846Z,99.90
2017-05-18T11:46:58.577Z,99.90
2017-05-18T11:49:29.417Z,99.90
2017-05-18T11:52:00.267Z,99.90
2017-05-18T11:54:32.042Z,99.90
2017-05-18T11:57:02.825Z,99.90
2017-05-18T11:59:33.585Z,99.90
2017-05-18T12:02:04.016Z,99.90
2017-05-18T12:04:34.760Z,99.90
2017-05-18T12:07:05.490Z,99.90
2017-05-18T12:09:36.222Z,99.90
2017-05-18T12:12:07.594Z,99.90
2017-05-18T12:14:38.125Z,99.90
2017-05-18T12:17:08.980Z,99.90
2017-05-18T12:19:39.720Z,99.90
2017-05-18T12:22:10.656Z,99.90
2017-05-18T12:24:41.300Z,99.90
2017-05-18T12:27:11.990Z,99.90
2017-05-18T12:29:42.751Z,99.90
2017-05-18T12:32:13.737Z,99.90
2017-05-18T12:34:45.454Z,99.90
2017-05-18T12:37:16.118Z,99.90
2017-05-18T12:39:46.625Z,99.90
2017-05-18T12:42:17.433Z,99.90
2017-05-18T12:44:48.024Z,99.90
2017-05-18T12:47:18.964Z,99.90
2017-05-18T12:49:49.476Z,99.90
2017-05-18T12:52:20.188Z,99.90
2017-05-18T12:54:51.715Z,99.90
2017-05-18T12:57:22.723Z,99.90
2017-05-18T12:59:53.510Z,99.90
2017-05-18T13:02:24.017Z,99.90
2017-05-18T13:04:54.892Z,99.90
2017-05-18T13:07:25.254Z,99.90
2017-05-18T13:09:56.174Z,99.90
2017-05-18T13:12:27.039Z,99.90
2017-05-18T13:14:57.958Z,99.90
2017-05-18T13:17:28.649Z,99.90
2017-05-18T13:19:59.543Z,99.90
2017-05-18T13:22:30.414Z,99.90
2017-05-18T13:25:01.560Z,99.90
2017-05-18T13:27:32.311Z,99.90
2017-05-18T13:30:03.291Z,99.90
2017-05-18T13:32:34.827Z,99.90
2017-05-18T13:35:05.795Z,99.90
2017-05-18T13:37:36.509Z,99.90
2017-05-18T13:40:07.024Z,99.90
2017-05-18T13:42:37.852Z,99.90
2017-05-18T13:45:08.553Z,99.90
2017-05-18T13:47:39.195Z,99.90
2017-05-18T13:50:09.832Z,99.90
2017-05-18T13:52:40.804Z,99.90
2017-05-18T13:55:13.181Z,99.90
2017-05-18T13:57:44.708Z,99.80
2017-05-18T14:00:15.336Z,99.90
2017-05-18T14:02:46.337Z,98.90
2017-05-18T14:05:16.712Z,93.30
2017-05-18T14:07:47.210Z,92.20
2017-05-18T14:10:17.927Z,90.60
2017-05-18T14:12:49.693Z,92.00
2017-05-18T14:15:20.343Z,91.20
2017-05-18T14:17:51.499Z,89.10
2017-05-18T14:20:22.430Z,85.00
2017-05-18T14:22:53.241Z,82.90
2017-05-18T14:25:24.132Z,81.60
2017-05-18T14:27:55.768Z,83.20
2017-05-18T14:30:26.428Z,81.30
2017-05-18T14:32:57.360Z,82.50
2017-05-18T14:35:28.379Z,87.00
2017-05-18T14:37:58.736Z,86.10
2017-05-18T14:40:30.076Z,87.30
2017-05-18T14:43:00.976Z,88.10
2017-05-18T14:45:31.745Z,90.60
2017-05-18T14:48:03.228Z,88.70
2017-05-18T14:50:34.635Z,90.20
2017-05-18T14:53:05.531Z,87.60
2017-05-18T14:55:37.127Z,82.20
2017-05-18T14:58:08.023Z,81.00
2017-05-18T15:00:38.876Z,74.10
2017-05-18T15:03:09.667Z,74.00
2017-05-18T15:05:40.606Z,71.60
2017-05-18T15:08:11.304Z,70.60
2017-05-18T15:10:42.192Z,72.40
2017-05-18T15:13:13.152Z,68.40
2017-05-18T15:15:43.768Z,69.30
2017-05-18T15:18:14.632Z,68.00
2017-05-18T15:20:45.556Z,63.60
2017-05-18T15:23:16.367Z,59.00
2017-05-18T15:25:47.245Z,55.60
2017-05-18T15:28:18.144Z,56.00
2017-05-18T15:30:49.676Z,47.50
2017-05-18T15:33:20.405Z,55.60
2017-05-18T15:35:51.133Z,44.50
2017-05-18T15:38:22.005Z,42.80
2017-05-18T15:40:52.909Z,39.20
2017-05-18T15:43:23.624Z,38.50
2017-05-18T15:45:54.325Z,43.30
2017-05-18T15:48:25.149Z,34.50
2017-05-18T15:50:56.982Z,35.90
2017-05-18T15:53:27.749Z,27.90
2017-05-18T15:56:00.436Z,25.80
2017-05-18T15:58:32.210Z,26.00
2017-05-18T16:01:02.961Z,24.10
2017-05-18T16:03:33.830Z,26.60
2017-05-18T16:06:04.733Z,26.20
2017-05-18T16:08:35.503Z,25.50
2017-05-18T16:11:06.403Z,27.90
2017-05-18T16:13:37.132Z,31.80
2017-05-18T16:16:07.874Z,29.40
2017-05-18T16:18:38.885Z,32.60
2017-05-18T16:21:10.534Z,30.70
2017-05-18T16:23:41.639Z,33.50
2017-05-18T16:26:12.477Z,25.80
2017-05-18T16:28:43.157Z,29.70
2017-05-18T16:31:14.092Z,24.40
2017-05-18T16:33:45.102Z,22.40
2017-05-18T16:36:15.963Z,21.80
2017-05-18T16:38:47.576Z,20.70
2017-05-18T16:41:18.564Z,20.60
2017-05-18T16:43:50.187Z,21.10
2017-05-18T16:46:21.142Z,21.20
2017-05-18T16:48:52.068Z,18.80
2017-05-18T16:51:22.730Z,20.20
2017-05-18T16:53:53.583Z,23.90
2017-05-18T16:56:25.100Z,21.70
2017-05-18T16:58:56.036Z,24.70
2017-05-18T17:01:26.171Z,20.80
2017-05-18T17:03:57.134Z,20.30
2017-05-18T17:06:28.097Z,24.80
2017-05-18T17:08:58.882Z,21.40
2017-05-18T17:11:29.511Z,24.20
2017-05-18T17:14:00.266Z,24.90
2017-05-18T17:16:30.851Z,22.70
2017-05-18T17:19:02.579Z,23.00
2017-05-18T17:21:33.403Z,21.50
2017-05-18T17:24:04.353Z,22.80
2017-05-18T17:26:35.222Z,22.00
2017-05-18T17:29:06.098Z,22.40
2017-05-18T17:31:36.770Z,24.00
2017-05-18T17:34:07.540Z,22.10
2017-05-18T17:36:38.389Z,22.40
2017-05-18T17:39:09.308Z,24.40
2017-05-18T17:41:40.147Z,19.80
2017-05-18T17:44:11.063Z,19.70
2017-05-18T17:46:41.772Z,21.60
2017-05-18T17:49:12.466Z,20.30
2017-05-18T17:51:43.045Z,20.90
2017-05-18T17:54:13.708Z,21.80
2017-05-18T17:56:46.091Z,23.00
2017-05-18T17:59:16.923Z,22.30
2017-05-18T18:01:47.600Z,21.80
2017-05-18T18:04:18.667Z,24.10
2017-05-18T18:06:49.426Z,27.50
2017-05-18T18:09:20.121Z,26.80
2017-05-18T18:11:50.964Z,31.00
2017-05-18T18:14:22.060Z,28.90
2017-05-18T18:16:52.854Z,37.10
2017-05-18T18:19:23.620Z,32.60
2017-05-18T18:21:55.019Z,34.70
2017-05-18T18:24:26.008Z,36.00
2017-05-18T18:26:56.490Z,32.60
2017-05-18T18:29:27.136Z,39.30
2017-05-18T18:31:57.837Z,32.80
2017-05-18T18:34:28.711Z,25.60
2017-05-18T18:36:59.300Z,28.40
2017-05-18T18:39:30.162Z,32.80
2017-05-18T18:42:01.003Z,33.80
2017-05-18T18:44:31.602Z,32.80
2017-05-18T18:47:02.493Z,35.50
2017-05-18T18:49:33.492Z,26.30
2017-05-18T18:52:04.416Z,28.70
2017-05-18T18:54:35.394Z,31.00
2017-05-18T18:57:07.885Z,38.50
2017-05-18T18:59:38.764Z,38.70
2017-05-18T19:02:09.775Z,35.80
2017-05-18T19:04:40.547Z,37.00
2017-05-18T19:07:12.236Z,36.70
2017-05-18T19:09:43.123Z,35.40
2017-05-18T19:12:14.771Z,36.40
2017-05-18T19:14:45.679Z,33.90
2017-05-18T19:17:16.382Z,41.10
2017-05-18T19:19:47.399Z,36.30
2017-05-18T19:22:18.033Z,35.10
2017-05-18T19:24:48.593Z,35.20
2017-05-18T19:27:19.528Z,36.10
2017-05-18T19:29:50.365Z,27.50
2017-05-18T19:32:21.182Z,33.00
2017-05-18T19:34:51.932Z,32.60
2017-05-18T19:37:22.857Z,28.80
2017-05-18T19:39:53.874Z,32.80
2017-05-18T19:42:24.736Z,25.20
2017-05-18T19:44:55.472Z,34.30
2017-05-18T19:47:26.333Z,29.50
2017-05-18T19:49:56.880Z,36.90
2017-05-18T19:52:27.504Z,32.10
2017-05-18T19:54:58.748Z,27.70
2017-05-18T19:57:30.706Z,28.60
2017-05-18T20:00:01.796Z,26.50
2017-05-18T20:02:32.277Z,31.60
2017-05-18T20:05:03.083Z,36.30
2017-05-18T20:07:34.796Z,35.30
2017-05-18T20:10:05.610Z,35.80
2017-05-18T20:12:36.333Z,33.20
2017-05-18T20:15:07.078Z,30.50
2017-05-18T20:17:37.728Z,32.10
2017-05-18T20:20:08.752Z,34.40
2017-05-18T20:22:39.640Z,32.40
2017-05-18T20:25:10.477Z,32.80
2017-05-18T20:27:41.118Z,31.30
2017-05-18T20:30:11.906Z,33.40
2017-05-18T20:32:42.968Z,33.20
2017-05-18T20:35:14.036Z,35.90
2017-05-18T20:37:44.945Z,34.50
2017-05-18T20:40:15.824Z,40.80
2017-05-18T20:42:46.843Z,40.00
2017-05-18T20:45:18.367Z,36.10
2017-05-18T20:47:49.070Z,36.20
2017-05-18T20:50:19.999Z,36.50
2017-05-18T20:52:50.761Z,35.50
2017-05-18T20:55:21.444Z,40.30
2017-05-18T20:57:52.691Z,35.20
2017-05-18T21:00:23.497Z,34.10
2017-05-18T21:02:54.374Z,35.50
2017-05-18T21:05:25.130Z,35.10
2017-05-18T21:07:55.977Z,41.70
2017-05-18T21:10:26.332Z,35.50
2017-05-18T21:12:57.304Z,32.30
2017-05-18T21:15:27.688Z,30.40
2017-05-18T21:17:58.271Z,33.10
2017-05-18T21:20:29.076Z,31.50
2017-05-18T21:22:59.886Z,32.00
2017-05-18T21:25:30.764Z,35.80
2017-05-18T21:28:01.471Z,30.90
2017-05-18T21:30:32.396Z,30.90
2017-05-18T21:33:04.141Z,36.70
2017-05-18T21:35:34.771Z,29.40
2017-05-18T21:38:05.389Z,30.00
2017-05-18T21:40:36.452Z,30.90
2017-05-18T21:43:06.956Z,33.20
2017-05-18T21:45:37.582Z,38.10
2017-05-18T21:48:08.414Z,35.60
2017-05-18T21:50:39.042Z,31.00
2017-05-18T21:53:09.973Z,30.60
2017-05-18T21:55:41.476Z,33.80
2017-05-18T21:58:13.419Z,32.30
2017-05-18T22:00:44.330Z,28.90
2017-05-18T22:03:15.955Z,29.20
2017-05-18T22:05:47.019Z,32.10
2017-05-18T22:08:17.723Z,29.00
2017-05-18T22:10:48.325Z,30.30
2017-05-18T22:13:18.853Z,29.80
2017-05-18T22:15:49.548Z,29.90
2017-05-18T22:18:20.308Z,31.80
2017-05-18T22:20:51.070Z,34.00
2017-05-18T22:23:21.580Z,32.00
2017-05-18T22:25:52.321Z,27.70
2017-05-18T22:28:22.798Z,32.30
2017-05-18T22:30:53.800Z,30.60
2017-05-18T22:33:24.575Z,26.60
2017-05-18T22:35:55.189Z,27.40
2017-05-18T22:38:25.909Z,28.30
2017-05-18T22:40:56.854Z,27.50
2017-05-18T22:43:27.359Z,27.90
2017-05-18T22:45:58.104Z,26.10
2017-05-18T22:48:29.100Z,30.90
2017-05-18T22:51:00.180Z,28.70
2017-05-18T22:53:30.825Z,28.20
2017-05-18T22:56:01.652Z,30.00
2017-05-18T22:58:32.782Z,29.80
2017-05-18T23:01:03.632Z,30.20
2017-05-18T23:03:34.822Z,29.20
2017-05-18T23:06:05.863Z,31.90
2017-05-18T23:08:36.652Z,27.90
2017-05-18T23:11:07.482Z,27.90
2017-05-18T23:13:38.245Z,30.00
2017-05-18T23:18:31.969Z,30.90
2017-05-18T23:21:03.614Z,27.40
2017-05-18T23:23:34.725Z,28.80
2017-05-18T23:26:05.226Z,28.20
2017-05-18T23:28:35.942Z,28.10
2017-05-18T23:31:07.425Z,26.70
2017-05-18T23:33:38.203Z,27.60
2017-05-18T23:36:08.764Z,28.50
2017-05-18T23:38:39.399Z,28.40
2017-05-18T23:41:10.207Z,27.50
2017-05-18T23:43:40.783Z,28.80
2017-05-18T23:46:11.712Z,27.70
2017-05-18T23:48:42.498Z,30.70
2017-05-18T23:51:13.234Z,31.70
2017-05-18T23:53:43.965Z,32.20
2017-05-18T23:56:14.714Z,30.90
2017-05-18T23:58:46.323Z,28.20
